Ricketts, Iowa
Current Conditions -  °F | °C
As of 1:55 AM on Thursday 23 Oct 2014 (Local Time) from KDNS Reporting Station
Overcast Overcast  
Wind Chill: 57°   Ceiling: 3000
Heat Index: 57°   Visibility: 10mi
Dew Point: 57°   Wind: 15mph
Humidity: 100%   Direction: 170°S
Pressure: 30"   Gusts: 24mph
Location:  42.13°N, 95.58°W
Report Text: KDNS 230655Z AUTO 17013G21KT 10SM SCT025 BKN030 OVC038 14/14 A3000 RMK AO2 P0006
Loading
Personal Weather Stations






























Interactive Weather Map
Tropical Storm Tracking
New forecast layout! Learn more

10-Day Weather Forecast

Advertisements
Track Severe Weather on mobile